sensor_id;sensor_type;location;lat;lon;timestamp;P1;durP1;ratioP1;P2;durP2;ratioP2
41305;SDS011;27051;50.376;19.152;2023-08-07T14:03:30;7.00;;;4.10;;
41305;SDS011;27051;50.376;19.152;2023-08-07T14:05:56;8.00;;;5.10;;
41305;SDS011;27051;50.376;19.152;2023-08-07T14:08:23;10.30;;;4.30;;
41305;SDS011;27051;50.376;19.152;2023-08-07T14:10:50;9.70;;;4.00;;
41305;SDS011;27051;50.376;19.152;2023-08-07T14:13:16;7.90;;;4.30;;
41305;SDS011;27051;50.376;19.152;2023-08-07T14:15:43;9.90;;;5.10;;
41305;SDS011;27051;50.376;19.152;2023-08-07T14:18:09;5.80;;;4.40;;
41305;SDS011;27051;50.376;19.152;2023-08-07T14:20:36;8.80;;;4.90;;
41305;SDS011;27051;50.376;19.152;2023-08-07T14:23:02;7.40;;;4.80;;
41305;SDS011;27051;50.376;19.152;2023-08-07T14:25:29;8.70;;;5.10;;
41305;SDS011;27051;50.376;19.152;2023-08-07T14:27:55;8.00;;;4.70;;
41305;SDS011;27051;50.376;19.152;2023-08-07T14:30:22;8.10;;;4.40;;
41305;SDS011;27051;50.376;19.152;2023-08-07T14:32:49;9.80;;;4.00;;
41305;SDS011;27051;50.376;19.152;2023-08-07T14:35:15;8.00;;;4.40;;
41305;SDS011;27051;50.376;19.152;2023-08-07T14:37:42;7.40;;;4.10;;
41305;SDS011;27051;50.376;19.152;2023-08-07T14:40:08;5.40;;;3.60;;
41305;SDS011;27051;50.376;19.152;2023-08-07T14:42:38;10.50;;;4.00;;
41305;SDS011;27051;50.376;19.152;2023-08-07T14:45:05;5.00;;;3.10;;
41305;SDS011;27051;50.376;19.152;2023-08-07T14:47:32;5.20;;;2.90;;
41305;SDS011;27051;50.376;19.152;2023-08-07T14:49:59;6.80;;;3.50;;
41305;SDS011;27051;50.376;19.152;2023-08-07T14:52:46;4.00;;;2.80;;
41305;SDS011;27051;50.376;19.152;2023-08-07T14:55:15;4.40;;;3.10;;
41305;SDS011;27051;50.376;19.152;2023-08-07T14:57:44;6.20;;;3.20;;
41305;SDS011;27051;50.376;19.152;2023-08-07T15:00:10;6.90;;;3.00;;
41305;SDS011;27051;50.376;19.152;2023-08-07T15:02:57;6.60;;;3.20;;
41305;SDS011;27051;50.376;19.152;2023-08-07T15:05:24;5.70;;;3.90;;
41305;SDS011;27051;50.376;19.152;2023-08-07T15:07:50;6.60;;;4.30;;
41305;SDS011;27051;50.376;19.152;2023-08-07T15:10:17;9.30;;;4.20;;
41305;SDS011;27051;50.376;19.152;2023-08-07T15:12:53;6.40;;;3.90;;
41305;SDS011;27051;50.376;19.152;2023-08-07T15:15:19;10.30;;;4.20;;
41305;SDS011;27051;50.376;19.152;2023-08-07T15:17:46;5.80;;;3.40;;
41305;SDS011;27051;50.376;19.152;2023-08-07T15:23:02;11.20;;;5.10;;
41305;SDS011;27051;50.376;19.152;2023-08-07T15:25:33;7.60;;;4.10;;
41305;SDS011;27051;50.376;19.152;2023-08-07T15:31:03;8.20;;;4.20;;
41305;SDS011;27051;50.376;19.152;2023-08-07T15:33:29;6.70;;;3.80;;
41305;SDS011;27051;50.376;19.152;2023-08-07T15:36:13;5.50;;;3.50;;
41305;SDS011;27051;50.376;19.152;2023-08-07T15:38:42;6.60;;;3.90;;
41305;SDS011;27051;50.376;19.152;2023-08-07T15:41:29;4.30;;;2.90;;
41305;SDS011;27051;50.376;19.152;2023-08-07T15:44:05;6.00;;;3.30;;
41305;SDS011;27051;50.376;19.152;2023-08-07T15:49:33;5.00;;;3.20;;
41305;SDS011;27051;50.376;19.152;2023-08-07T15:52:02;6.70;;;3.60;;
41305;SDS011;27051;50.376;19.152;2023-08-07T15:54:37;7.60;;;3.20;;
41305;SDS011;27051;50.376;19.152;2023-08-07T15:57:23;3.50;;;2.80;;
41305;SDS011;27051;50.376;19.152;2023-08-07T16:02:53;9.00;;;3.20;;
41305;SDS011;27051;50.376;19.152;2023-08-07T16:05:21;6.00;;;2.80;;
41305;SDS011;27051;50.376;19.152;2023-08-07T16:07:47;5.60;;;3.00;;
41305;SDS011;27051;50.376;19.152;2023-08-07T16:10:15;7.50;;;4.10;;
41305;SDS011;27051;50.376;19.152;2023-08-07T16:12:44;7.70;;;3.10;;
41305;SDS011;27051;50.376;19.152;2023-08-07T16:15:11;3.80;;;2.50;;
41305;SDS011;27051;50.376;19.152;2023-08-07T16:17:47;5.70;;;2.90;;
41305;SDS011;27051;50.376;19.152;2023-08-07T16:20:23;6.80;;;2.90;;
41305;SDS011;27051;50.376;19.152;2023-08-07T16:22:52;6.20;;;3.20;;
41305;SDS011;27051;50.376;19.152;2023-08-07T16:25:25;5.20;;;3.30;;
41305;SDS011;27051;50.376;19.152;2023-08-07T16:28:01;6.80;;;3.40;;
41305;SDS011;27051;50.376;19.152;2023-08-07T16:30:27;7.90;;;3.70;;
41305;SDS011;27051;50.376;19.152;2023-08-07T16:33:04;7.60;;;3.80;;
41305;SDS011;27051;50.376;19.152;2023-08-07T16:35:30;7.00;;;3.70;;
41305;SDS011;27051;50.376;19.152;2023-08-07T16:37:57;6.40;;;3.80;;
41305;SDS011;27051;50.376;19.152;2023-08-07T16:40:24;5.70;;;3.50;;
41305;SDS011;27051;50.376;19.152;2023-08-07T16:42:50;8.70;;;3.30;;
41305;SDS011;27051;50.376;19.152;2023-08-07T16:45:17;5.60;;;3.10;;
41305;SDS011;27051;50.376;19.152;2023-08-07T16:47:43;6.70;;;3.50;;
41305;SDS011;27051;50.376;19.152;2023-08-07T16:50:10;5.30;;;3.00;;
41305;SDS011;27051;50.376;19.152;2023-08-07T16:52:47;5.70;;;3.30;;
41305;SDS011;27051;50.376;19.152;2023-08-07T16:55:13;8.10;;;3.50;;
41305;SDS011;27051;50.376;19.152;2023-08-07T16:57:42;5.20;;;3.40;;
41305;SDS011;27051;50.376;19.152;2023-08-07T17:02:48;8.40;;;3.70;;
41305;SDS011;27051;50.376;19.152;2023-08-07T17:05:35;4.40;;;3.20;;
41305;SDS011;27051;50.376;19.152;2023-08-07T17:08:13;6.10;;;3.30;;
41305;SDS011;27051;50.376;19.152;2023-08-07T17:10:39;4.20;;;3.00;;
41305;SDS011;27051;50.376;19.152;2023-08-07T17:16:03;6.40;;;3.40;;
41305;SDS011;27051;50.376;19.152;2023-08-07T17:18:30;5.30;;;3.50;;
41305;SDS011;27051;50.376;19.152;2023-08-07T17:21:05;6.30;;;3.50;;
41305;SDS011;27051;50.376;19.152;2023-08-07T17:23:31;5.90;;;3.30;;
41305;SDS011;27051;50.376;19.152;2023-08-07T17:25:58;7.10;;;3.50;;
41305;SDS011;27051;50.376;19.152;2023-08-07T17:28:24;7.60;;;3.60;;
41305;SDS011;27051;50.376;19.152;2023-08-07T17:30:54;7.10;;;3.30;;
41305;SDS011;27051;50.376;19.152;2023-08-07T17:33:20;7.50;;;3.20;;
41305;SDS011;27051;50.376;19.152;2023-08-07T17:35:47;7.70;;;3.00;;
41305;SDS011;27051;50.376;19.152;2023-08-07T17:38:13;4.40;;;3.20;;
41305;SDS011;27051;50.376;19.152;2023-08-07T17:40:43;7.70;;;3.50;;
41305;SDS011;27051;50.376;19.152;2023-08-07T17:43:15;8.10;;;3.30;;
41305;SDS011;27051;50.376;19.152;2023-08-07T17:45:42;6.70;;;2.90;;
41305;SDS011;27051;50.376;19.152;2023-08-07T17:48:09;4.00;;;2.80;;
41305;SDS011;27051;50.376;19.152;2023-08-07T17:50:36;4.90;;;3.10;;
41305;SDS011;27051;50.376;19.152;2023-08-07T17:53:02;8.70;;;3.90;;
41305;SDS011;27051;50.376;19.152;2023-08-07T17:55:29;6.50;;;3.30;;
41305;SDS011;27051;50.376;19.152;2023-08-07T17:57:56;6.10;;;3.20;;
41305;SDS011;27051;50.376;19.152;2023-08-07T18:00:23;5.40;;;3.30;;
41305;SDS011;27051;50.376;19.152;2023-08-07T18:02:59;4.90;;;3.50;;
41305;SDS011;27051;50.376;19.152;2023-08-07T18:05:47;9.50;;;4.70;;
41305;SDS011;27051;50.376;19.152;2023-08-07T18:08:12;6.70;;;4.20;;
41305;SDS011;27051;50.376;19.152;2023-08-07T18:10:38;10.90;;;5.10;;
41305;SDS011;27051;50.376;19.152;2023-08-07T18:13:05;10.40;;;4.50;;
41305;SDS011;27051;50.376;19.152;2023-08-07T18:15:31;5.80;;;3.90;;
41305;SDS011;27051;50.376;19.152;2023-08-07T18:18:07;4.30;;;3.40;;
41305;SDS011;27051;50.376;19.152;2023-08-07T18:20:34;5.80;;;3.70;;
41305;SDS011;27051;50.376;19.152;2023-08-07T18:23:01;7.00;;;4.20;;
41305;SDS011;27051;50.376;19.152;2023-08-07T18:25:27;7.80;;;3.50;;
41305;SDS011;27051;50.376;19.152;2023-08-07T18:27:54;8.60;;;3.40;;
41305;SDS011;27051;50.376;19.152;2023-08-07T18:30:20;7.70;;;3.80;;
41305;SDS011;27051;50.376;19.152;2023-08-07T18:32:47;8.00;;;3.70;;
41305;SDS011;27051;50.376;19.152;2023-08-07T18:35:14;5.60;;;3.60;;
41305;SDS011;27051;50.376;19.152;2023-08-07T18:37:43;5.50;;;3.70;;
41305;SDS011;27051;50.376;19.152;2023-08-07T18:40:10;9.00;;;4.10;;
41305;SDS011;27051;50.376;19.152;2023-08-07T18:42:37;5.90;;;3.70;;
41305;SDS011;27051;50.376;19.152;2023-08-07T18:45:04;7.30;;;4.20;;
41305;SDS011;27051;50.376;19.152;2023-08-07T18:47:31;5.80;;;3.80;;
41305;SDS011;27051;50.376;19.152;2023-08-07T18:49:58;7.00;;;4.10;;
41305;SDS011;27051;50.376;19.152;2023-08-07T18:52:24;6.50;;;4.20;;
41305;SDS011;27051;50.376;19.152;2023-08-07T18:54:51;8.20;;;4.90;;
41305;SDS011;27051;50.376;19.152;2023-08-07T18:57:18;10.90;;;5.30;;
41305;SDS011;27051;50.376;19.152;2023-08-07T18:59:44;9.30;;;5.20;;
41305;SDS011;27051;50.376;19.152;2023-08-07T19:02:11;7.30;;;4.80;;
41305;SDS011;27051;50.376;19.152;2023-08-07T19:04:38;11.90;;;6.30;;
41305;SDS011;27051;50.376;19.152;2023-08-07T19:07:04;12.80;;;6.10;;
41305;SDS011;27051;50.376;19.152;2023-08-07T19:09:31;12.40;;;6.80;;
41305;SDS011;27051;50.376;19.152;2023-08-07T19:11:58;10.70;;;6.40;;
41305;SDS011;27051;50.376;19.152;2023-08-07T19:14:25;12.50;;;6.20;;
41305;SDS011;27051;50.376;19.152;2023-08-07T19:16:51;11.50;;;6.30;;
41305;SDS011;27051;50.376;19.152;2023-08-07T19:19:18;9.80;;;5.80;;
41305;SDS011;27051;50.376;19.152;2023-08-07T19:21:45;10.30;;;5.20;;
41305;SDS011;27051;50.376;19.152;2023-08-07T19:24:11;10.30;;;4.40;;
41305;SDS011;27051;50.376;19.152;2023-08-07T19:26:38;7.60;;;4.60;;
41305;SDS011;27051;50.376;19.152;2023-08-07T19:29:08;5.80;;;3.50;;
41305;SDS011;27051;50.376;19.152;2023-08-07T19:31:34;6.60;;;3.80;;
41305;SDS011;27051;50.376;19.152;2023-08-07T19:34:01;6.60;;;3.90;;
41305;SDS011;27051;50.376;19.152;2023-08-07T19:36:28;8.30;;;4.00;;
41305;SDS011;27051;50.376;19.152;2023-08-07T19:38:55;5.70;;;3.90;;
41305;SDS011;27051;50.376;19.152;2023-08-07T19:41:21;5.60;;;3.50;;
41305;SDS011;27051;50.376;19.152;2023-08-07T19:43:50;6.70;;;3.70;;
41305;SDS011;27051;50.376;19.152;2023-08-07T19:46:17;9.40;;;3.70;;
41305;SDS011;27051;50.376;19.152;2023-08-07T19:48:43;6.20;;;3.80;;
41305;SDS011;27051;50.376;19.152;2023-08-07T19:51:10;7.90;;;3.70;;
41305;SDS011;27051;50.376;19.152;2023-08-07T19:53:36;6.20;;;3.60;;
41305;SDS011;27051;50.376;19.152;2023-08-07T19:56:03;6.50;;;3.10;;
41305;SDS011;27051;50.376;19.152;2023-08-07T19:58:30;4.50;;;3.40;;
41305;SDS011;27051;50.376;19.152;2023-08-07T20:00:56;5.70;;;3.60;;
41305;SDS011;27051;50.376;19.152;2023-08-07T20:03:23;8.50;;;3.70;;
41305;SDS011;27051;50.376;19.152;2023-08-07T20:05:49;6.10;;;3.60;;
41305;SDS011;27051;50.376;19.152;2023-08-07T20:08:16;6.10;;;3.90;;
41305;SDS011;27051;50.376;19.152;2023-08-07T20:10:43;7.40;;;4.20;;
41305;SDS011;27051;50.376;19.152;2023-08-07T20:13:09;8.00;;;4.40;;
41305;SDS011;27051;50.376;19.152;2023-08-07T20:15:36;6.80;;;3.80;;
41305;SDS011;27051;50.376;19.152;2023-08-07T20:18:02;7.60;;;3.60;;
41305;SDS011;27051;50.376;19.152;2023-08-07T20:20:29;7.50;;;3.60;;
41305;SDS011;27051;50.376;19.152;2023-08-07T20:23:05;6.20;;;3.50;;
41305;SDS011;27051;50.376;19.152;2023-08-07T20:25:31;8.60;;;4.00;;
41305;SDS011;27051;50.376;19.152;2023-08-07T20:27:58;6.90;;;3.40;;
41305;SDS011;27051;50.376;19.152;2023-08-07T20:30:24;7.80;;;3.90;;
41305;SDS011;27051;50.376;19.152;2023-08-07T20:32:51;7.10;;;3.50;;
41305;SDS011;27051;50.376;19.152;2023-08-07T20:35:17;8.70;;;3.60;;
41305;SDS011;27051;50.376;19.152;2023-08-07T20:37:44;6.10;;;3.70;;
41305;SDS011;27051;50.376;19.152;2023-08-07T20:40:11;5.20;;;3.30;;
41305;SDS011;27051;50.376;19.152;2023-08-07T20:42:37;5.70;;;3.30;;
41305;SDS011;27051;50.376;19.152;2023-08-07T20:45:07;7.10;;;3.80;;
41305;SDS011;27051;50.376;19.152;2023-08-07T20:47:33;11.00;;;4.00;;
41305;SDS011;27051;50.376;19.152;2023-08-07T20:50:21;6.20;;;3.20;;
41305;SDS011;27051;50.376;19.152;2023-08-07T20:52:47;5.60;;;3.10;;
41305;SDS011;27051;50.376;19.152;2023-08-07T20:55:13;7.60;;;3.10;;
41305;SDS011;27051;50.376;19.152;2023-08-07T20:57:40;5.00;;;2.60;;
41305;SDS011;27051;50.376;19.152;2023-08-07T21:02:47;4.40;;;2.30;;
41305;SDS011;27051;50.376;19.152;2023-08-07T21:05:13;4.00;;;2.00;;
41305;SDS011;27051;50.376;19.152;2023-08-07T21:07:40;3.40;;;2.20;;
41305;SDS011;27051;50.376;19.152;2023-08-07T21:10:07;5.30;;;2.40;;
41305;SDS011;27051;50.376;19.152;2023-08-07T21:12:34;4.50;;;2.10;;
41305;SDS011;27051;50.376;19.152;2023-08-07T21:15:06;4.50;;;2.40;;
41305;SDS011;27051;50.376;19.152;2023-08-07T21:17:33;5.00;;;2.40;;
41305;SDS011;27051;50.376;19.152;2023-08-07T21:20:00;4.60;;;2.10;;
41305;SDS011;27051;50.376;19.152;2023-08-07T21:22:27;4.50;;;2.20;;
41305;SDS011;27051;50.376;19.152;2023-08-07T21:24:53;5.70;;;2.50;;
41305;SDS011;27051;50.376;19.152;2023-08-07T21:27:20;3.10;;;2.00;;
41305;SDS011;27051;50.376;19.152;2023-08-07T21:29:46;4.30;;;1.90;;
41305;SDS011;27051;50.376;19.152;2023-08-07T21:32:13;2.50;;;1.70;;
41305;SDS011;27051;50.376;19.152;2023-08-07T21:34:43;4.30;;;1.90;;
41305;SDS011;27051;50.376;19.152;2023-08-07T21:37:09;2.30;;;1.80;;
41305;SDS011;27051;50.376;19.152;2023-08-07T21:39:36;2.00;;;1.80;;
41305;SDS011;27051;50.376;19.152;2023-08-07T21:42:02;4.40;;;1.90;;
41305;SDS011;27051;50.376;19.152;2023-08-07T21:44:29;3.80;;;1.60;;
41305;SDS011;27051;50.376;19.152;2023-08-07T21:46:56;4.70;;;1.50;;
41305;SDS011;27051;50.376;19.152;2023-08-07T21:49:22;2.50;;;1.70;;
41305;SDS011;27051;50.376;19.152;2023-08-07T21:51:49;4.70;;;1.70;;
41305;SDS011;27051;50.376;19.152;2023-08-07T21:54:16;3.30;;;1.30;;
41305;SDS011;27051;50.376;19.152;2023-08-07T21:56:42;3.50;;;1.60;;
41305;SDS011;27051;50.376;19.152;2023-08-07T21:59:09;3.20;;;1.60;;
41305;SDS011;27051;50.376;19.152;2023-08-07T22:01:38;4.00;;;1.60;;
41305;SDS011;27051;50.376;19.152;2023-08-07T22:04:05;2.60;;;1.60;;
41305;SDS011;27051;50.376;19.152;2023-08-07T22:06:31;2.00;;;1.60;;
41305;SDS011;27051;50.376;19.152;2023-08-07T22:09:21;2.70;;;1.70;;
41305;SDS011;27051;50.376;19.152;2023-08-07T22:11:47;6.00;;;1.90;;
41305;SDS011;27051;50.376;19.152;2023-08-07T22:14:16;3.70;;;1.70;;
41305;SDS011;27051;50.376;19.152;2023-08-07T22:16:43;4.40;;;1.60;;
41305;SDS011;27051;50.376;19.152;2023-08-07T22:19:10;3.10;;;1.80;;
41305;SDS011;27051;50.376;19.152;2023-08-07T22:21:36;5.80;;;1.70;;
41305;SDS011;27051;50.376;19.152;2023-08-07T22:24:03;3.30;;;1.80;;
41305;SDS011;27051;50.376;19.152;2023-08-07T22:26:54;2.20;;;1.60;;
41305;SDS011;27051;50.376;19.152;2023-08-07T22:29:20;6.10;;;1.60;;
41305;SDS011;27051;50.376;19.152;2023-08-07T22:31:46;4.60;;;1.50;;
41305;SDS011;27051;50.376;19.152;2023-08-07T22:34:13;3.80;;;2.10;;
41305;SDS011;27051;50.376;19.152;2023-08-07T22:36:39;5.20;;;2.60;;
41305;SDS011;27051;50.376;19.152;2023-08-07T22:39:06;4.00;;;1.90;;
41305;SDS011;27051;50.376;19.152;2023-08-07T22:41:32;4.80;;;2.40;;
41305;SDS011;27051;50.376;19.152;2023-08-07T22:44:02;3.50;;;2.10;;
41305;SDS011;27051;50.376;19.152;2023-08-07T22:46:29;3.00;;;1.80;;
41305;SDS011;27051;50.376;19.152;2023-08-07T22:48:55;7.70;;;2.20;;
41305;SDS011;27051;50.376;19.152;2023-08-07T22:51:22;3.30;;;2.10;;
41305;SDS011;27051;50.376;19.152;2023-08-07T22:53:48;4.00;;;1.90;;
41305;SDS011;27051;50.376;19.152;2023-08-07T22:56:15;6.20;;;2.30;;
41305;SDS011;27051;50.376;19.152;2023-08-07T22:58:45;3.60;;;2.30;;
41305;SDS011;27051;50.376;19.152;2023-08-07T23:01:14;5.40;;;2.20;;
41305;SDS011;27051;50.376;19.152;2023-08-07T23:03:40;6.90;;;2.00;;
41305;SDS011;27051;50.376;19.152;2023-08-07T23:06:07;2.70;;;1.90;;
41305;SDS011;27051;50.376;19.152;2023-08-07T23:08:34;5.40;;;2.30;;
41305;SDS011;27051;50.376;19.152;2023-08-07T23:11:00;5.50;;;2.10;;
41305;SDS011;27051;50.376;19.152;2023-08-07T23:13:28;4.00;;;2.10;;
41305;SDS011;27051;50.376;19.152;2023-08-07T23:15:55;4.50;;;2.20;;
41305;SDS011;27051;50.376;19.152;2023-08-07T23:18:43;5.70;;;2.30;;
41305;SDS011;27051;50.376;19.152;2023-08-07T23:21:09;5.60;;;2.40;;
41305;SDS011;27051;50.376;19.152;2023-08-07T23:23:35;6.50;;;2.50;;
41305;SDS011;27051;50.376;19.152;2023-08-07T23:26:02;4.40;;;2.40;;
41305;SDS011;27051;50.376;19.152;2023-08-07T23:28:29;4.70;;;2.40;;
41305;SDS011;27051;50.376;19.152;2023-08-07T23:31:04;4.80;;;2.30;;
41305;SDS011;27051;50.376;19.152;2023-08-07T23:33:31;2.80;;;2.00;;
41305;SDS011;27051;50.376;19.152;2023-08-07T23:35:57;6.10;;;2.20;;
41305;SDS011;27051;50.376;19.152;2023-08-07T23:38:26;4.80;;;1.80;;
41305;SDS011;27051;50.376;19.152;2023-08-07T23:40:52;6.20;;;2.70;;
41305;SDS011;27051;50.376;19.152;2023-08-07T23:43:19;4.60;;;2.20;;
41305;SDS011;27051;50.376;19.152;2023-08-07T23:45:46;7.30;;;2.70;;
41305;SDS011;27051;50.376;19.152;2023-08-07T23:48:12;7.10;;;2.60;;
41305;SDS011;27051;50.376;19.152;2023-08-07T23:50:39;5.10;;;2.20;;
41305;SDS011;27051;50.376;19.152;2023-08-07T23:53:05;9.00;;;3.30;;
41305;SDS011;27051;50.376;19.152;2023-08-07T23:55:32;8.40;;;2.30;;
41305;SDS011;27051;50.376;19.152;2023-08-07T23:58:08;4.80;;;2.40;;
